sensor_id;sensor_type;location;lat;lon;timestamp;pressure;altitude;pressure_sealevel;temperature;humidity
40384;BME280;26097;42.366;23.818;2023-05-23T00:00:41;93928.78;;;8.20;100.00
40384;BME280;26097;42.366;23.818;2023-05-23T00:03:42;93923.59;;;8.20;100.00
40384;BME280;26097;42.366;23.818;2023-05-23T00:06:42;93927.13;;;8.19;100.00
40384;BME280;26097;42.366;23.818;2023-05-23T00:09:46;93924.84;;;8.14;100.00
40384;BME280;26097;42.366;23.818;2023-05-23T00:12:46;93925.03;;;8.11;100.00
40384;BME280;26097;42.366;23.818;2023-05-23T00:15:47;93924.44;;;8.07;100.00
40384;BME280;26097;42.366;23.818;2023-05-23T00:18:48;93921.22;;;8.04;100.00
40384;BME280;26097;42.366;23.818;2023-05-23T00:21:49;93927.44;;;8.01;100.00
40384;BME280;26097;42.366;23.818;2023-05-23T00:24:55;93930.38;;;7.96;100.00
40384;BME280;26097;42.366;23.818;2023-05-23T00:27:56;93927.59;;;7.86;100.00
40384;BME280;26097;42.366;23.818;2023-05-23T00:30:57;93924.34;;;7.83;100.00
40384;BME280;26097;42.366;23.818;2023-05-23T00:33:57;93919.78;;;7.86;100.00
40384;BME280;26097;42.366;23.818;2023-05-23T00:36:58;93919.03;;;7.84;100.00
40384;BME280;26097;42.366;23.818;2023-05-23T00:39:59;93927.75;;;7.83;100.00
40384;BME280;26097;42.366;23.818;2023-05-23T00:43:00;93920.91;;;7.82;100.00
40384;BME280;26097;42.366;23.818;2023-05-23T00:46:00;93921.84;;;7.81;100.00
40384;BME280;26097;42.366;23.818;2023-05-23T00:49:01;93918.44;;;7.81;100.00
40384;BME280;26097;42.366;23.818;2023-05-23T00:52:05;93919.97;;;7.83;100.00
40384;BME280;26097;42.366;23.818;2023-05-23T00:55:05;93923.63;;;7.81;100.00
40384;BME280;26097;42.366;23.818;2023-05-23T00:58:07;93931.09;;;7.85;100.00
40384;BME280;26097;42.366;23.818;2023-05-23T01:01:08;93927.59;;;7.86;100.00
40384;BME280;26097;42.366;23.818;2023-05-23T01:04:08;93917.28;;;7.85;100.00
40384;BME280;26097;42.366;23.818;2023-05-23T01:07:09;93918.22;;;7.84;100.00
40384;BME280;26097;42.366;23.818;2023-05-23T01:10:10;93915.50;;;7.85;100.00
40384;BME280;26097;42.366;23.818;2023-05-23T01:13:31;93910.94;;;7.89;100.00
40384;BME280;26097;42.366;23.818;2023-05-23T01:16:40;93912.53;;;7.79;100.00
40384;BME280;26097;42.366;23.818;2023-05-23T01:19:54;93918.22;;;7.71;100.00
40384;BME280;26097;42.366;23.818;2023-05-23T01:29:06;93916.56;;;7.70;100.00
40384;BME280;26097;42.366;23.818;2023-05-23T01:32:11;93917.09;;;7.75;100.00
40384;BME280;26097;42.366;23.818;2023-05-23T01:35:12;93913.44;;;7.65;100.00
40384;BME280;26097;42.366;23.818;2023-05-23T01:38:13;93913.22;;;7.55;100.00
40384;BME280;26097;42.366;23.818;2023-05-23T01:41:13;93915.22;;;7.51;100.00
40384;BME280;26097;42.366;23.818;2023-05-23T01:44:14;93910.03;;;7.51;100.00
40384;BME280;26097;42.366;23.818;2023-05-23T01:47:15;93901.09;;;7.42;100.00
40384;BME280;26097;42.366;23.818;2023-05-23T01:50:16;93904.91;;;7.37;100.00
40384;BME280;26097;42.366;23.818;2023-05-23T01:53:19;93901.31;;;7.39;100.00
40384;BME280;26097;42.366;23.818;2023-05-23T01:56:20;93901.41;;;7.38;100.00
40384;BME280;26097;42.366;23.818;2023-05-23T01:59:20;93894.97;;;7.31;100.00
40384;BME280;26097;42.366;23.818;2023-05-23T02:02:21;93896.22;;;7.38;100.00
40384;BME280;26097;42.366;23.818;2023-05-23T02:05:21;93896.22;;;7.38;100.00
40384;BME280;26097;42.366;23.818;2023-05-23T02:08:22;93899.50;;;7.27;100.00
40384;BME280;26097;42.366;23.818;2023-05-23T02:11:22;93895.13;;;7.14;100.00
40384;BME280;26097;42.366;23.818;2023-05-23T02:14:22;93908.78;;;7.04;100.00
40384;BME280;26097;42.366;23.818;2023-05-23T02:17:25;93898.81;;;6.97;100.00
40384;BME280;26097;42.366;23.818;2023-05-23T02:20:25;93903.56;;;6.91;100.00
40384;BME280;26097;42.366;23.818;2023-05-23T02:23:26;93903.78;;;6.88;100.00
40384;BME280;26097;42.366;23.818;2023-05-23T02:26:26;93904.78;;;6.85;100.00
40384;BME280;26097;42.366;23.818;2023-05-23T02:29:27;93903.97;;;6.84;100.00
40384;BME280;26097;42.366;23.818;2023-05-23T02:32:27;93905.72;;;6.84;100.00
40384;BME280;26097;42.366;23.818;2023-05-23T02:35:28;93909.03;;;6.86;100.00
40384;BME280;26097;42.366;23.818;2023-05-23T02:38:29;93906.38;;;6.88;100.00
40384;BME280;26097;42.366;23.818;2023-05-23T02:41:30;93903.13;;;6.84;100.00
40384;BME280;26097;42.366;23.818;2023-05-23T02:44:30;93892.78;;;6.84;100.00
40384;BME280;26097;42.366;23.818;2023-05-23T02:47:30;93890.81;;;6.88;100.00
40384;BME280;26097;42.366;23.818;2023-05-23T02:50:31;93892.19;;;6.93;100.00
40384;BME280;26097;42.366;23.818;2023-05-23T02:53:31;93894.34;;;7.40;100.00
40384;BME280;26097;42.366;23.818;2023-05-23T02:56:31;93890.94;;;7.52;100.00
40384;BME280;26097;42.366;23.818;2023-05-23T02:59:32;93902.13;;;7.40;100.00
40384;BME280;26097;42.366;23.818;2023-05-23T03:02:32;93894.53;;;7.37;100.00
40384;BME280;26097;42.366;23.818;2023-05-23T03:05:32;93887.50;;;7.52;100.00
40384;BME280;26097;42.366;23.818;2023-05-23T03:08:33;93890.84;;;7.67;100.00
40384;BME280;26097;42.366;23.818;2023-05-23T03:11:33;93893.44;;;7.67;100.00
40384;BME280;26097;42.366;23.818;2023-05-23T03:14:33;93895.19;;;7.53;100.00
40384;BME280;26097;42.366;23.818;2023-05-23T03:17:34;93892.81;;;7.50;100.00
40384;BME280;26097;42.366;23.818;2023-05-23T03:20:34;93896.41;;;7.48;100.00
40384;BME280;26097;42.366;23.818;2023-05-23T03:23:35;93900.47;;;7.39;100.00
40384;BME280;26097;42.366;23.818;2023-05-23T03:26:35;93897.66;;;7.42;100.00
40384;BME280;26097;42.366;23.818;2023-05-23T03:29:36;93899.31;;;7.43;100.00
40384;BME280;26097;42.366;23.818;2023-05-23T03:32:36;93897.78;;;7.53;100.00
40384;BME280;26097;42.366;23.818;2023-05-23T03:35:36;93901.22;;;7.67;100.00
40384;BME280;26097;42.366;23.818;2023-05-23T03:38:37;93899.13;;;7.72;100.00
40384;BME280;26097;42.366;23.818;2023-05-23T03:41:37;93890.41;;;7.73;100.00
40384;BME280;26097;42.366;23.818;2023-05-23T03:44:38;93891.13;;;7.75;100.00
40384;BME280;26097;42.366;23.818;2023-05-23T03:47:38;93887.31;;;7.81;100.00
40384;BME280;26097;42.366;23.818;2023-05-23T03:50:39;93891.25;;;7.86;100.00
40384;BME280;26097;42.366;23.818;2023-05-23T03:53:39;93894.63;;;8.00;100.00
40384;BME280;26097;42.366;23.818;2023-05-23T03:56:40;93898.69;;;8.04;100.00
40384;BME280;26097;42.366;23.818;2023-05-23T03:59:40;93901.59;;;8.12;100.00
40384;BME280;26097;42.366;23.818;2023-05-23T04:02:40;93893.47;;;8.30;100.00
40384;BME280;26097;42.366;23.818;2023-05-23T04:05:41;93892.06;;;8.37;100.00
40384;BME280;26097;42.366;23.818;2023-05-23T04:08:41;93897.97;;;8.52;100.00
40384;BME280;26097;42.366;23.818;2023-05-23T04:11:42;93896.50;;;8.61;100.00
40384;BME280;26097;42.366;23.818;2023-05-23T04:14:43;93897.34;;;8.62;100.00
40384;BME280;26097;42.366;23.818;2023-05-23T04:17:43;93898.72;;;8.79;100.00
40384;BME280;26097;42.366;23.818;2023-05-23T04:20:45;93894.69;;;8.99;100.00
40384;BME280;26097;42.366;23.818;2023-05-23T04:23:45;93892.03;;;9.23;100.00
40384;BME280;26097;42.366;23.818;2023-05-23T04:26:46;93893.34;;;9.76;100.00
40384;BME280;26097;42.366;23.818;2023-05-23T04:29:46;93887.56;;;10.18;100.00
40384;BME280;26097;42.366;23.818;2023-05-23T04:32:47;93898.09;;;10.51;100.00
40384;BME280;26097;42.366;23.818;2023-05-23T04:35:47;93888.84;;;10.69;100.00
40384;BME280;26097;42.366;23.818;2023-05-23T04:38:48;93893.53;;;10.87;100.00
40384;BME280;26097;42.366;23.818;2023-05-23T04:41:49;93889.00;;;11.00;100.00
40384;BME280;26097;42.366;23.818;2023-05-23T04:44:52;93891.78;;;11.09;100.00
40384;BME280;26097;42.366;23.818;2023-05-23T04:47:53;93899.34;;;11.23;100.00
40384;BME280;26097;42.366;23.818;2023-05-23T04:50:56;93899.72;;;11.40;100.00
40384;BME280;26097;42.366;23.818;2023-05-23T04:53:56;93909.03;;;11.54;100.00
40384;BME280;26097;42.366;23.818;2023-05-23T04:56:56;93917.19;;;11.61;100.00
40384;BME280;26097;42.366;23.818;2023-05-23T04:59:57;93903.78;;;11.75;100.00
40384;BME280;26097;42.366;23.818;2023-05-23T05:02:57;93902.50;;;11.91;100.00
40384;BME280;26097;42.366;23.818;2023-05-23T05:05:58;93906.91;;;12.11;100.00
40384;BME280;26097;42.366;23.818;2023-05-23T05:08:58;93907.94;;;12.30;100.00
40384;BME280;26097;42.366;23.818;2023-05-23T05:11:58;93909.34;;;12.44;100.00
40384;BME280;26097;42.366;23.818;2023-05-23T05:14:59;93917.94;;;12.56;100.00
40384;BME280;26097;42.366;23.818;2023-05-23T05:17:59;93915.53;;;12.84;100.00
40384;BME280;26097;42.366;23.818;2023-05-23T05:21:00;93915.56;;;13.04;100.00
40384;BME280;26097;42.366;23.818;2023-05-23T05:24:00;93908.41;;;13.25;100.00
40384;BME280;26097;42.366;23.818;2023-05-23T05:27:01;93914.06;;;13.40;100.00
40384;BME280;26097;42.366;23.818;2023-05-23T05:30:01;93911.34;;;13.52;100.00
40384;BME280;26097;42.366;23.818;2023-05-23T05:33:04;93906.22;;;13.70;100.00
40384;BME280;26097;42.366;23.818;2023-05-23T05:36:06;93910.34;;;13.82;100.00
40384;BME280;26097;42.366;23.818;2023-05-23T05:39:07;93914.16;;;13.98;100.00
40384;BME280;26097;42.366;23.818;2023-05-23T05:42:08;93921.84;;;14.09;100.00
40384;BME280;26097;42.366;23.818;2023-05-23T05:45:08;93915.78;;;14.19;100.00
40384;BME280;26097;42.366;23.818;2023-05-23T05:48:11;93917.78;;;14.35;100.00
40384;BME280;26097;42.366;23.818;2023-05-23T05:51:11;93912.19;;;14.48;100.00
40384;BME280;26097;42.366;23.818;2023-05-23T05:54:11;93920.31;;;14.54;100.00
40384;BME280;26097;42.366;23.818;2023-05-23T05:57:12;93919.69;;;14.70;100.00
40384;BME280;26097;42.366;23.818;2023-05-23T06:00:13;93912.03;;;14.87;100.00
40384;BME280;26097;42.366;23.818;2023-05-23T06:03:14;93915.38;;;15.07;100.00
40384;BME280;26097;42.366;23.818;2023-05-23T06:06:15;93910.97;;;15.26;100.00
40384;BME280;26097;42.366;23.818;2023-05-23T06:09:15;93922.06;;;15.38;100.00
40384;BME280;26097;42.366;23.818;2023-05-23T06:12:15;93915.53;;;15.42;100.00
40384;BME280;26097;42.366;23.818;2023-05-23T06:15:16;93905.84;;;15.61;100.00
40384;BME280;26097;42.366;23.818;2023-05-23T06:18:16;93908.91;;;15.74;100.00
40384;BME280;26097;42.366;23.818;2023-05-23T06:21:17;93908.78;;;16.02;100.00
40384;BME280;26097;42.366;23.818;2023-05-23T06:24:17;93907.03;;;16.11;100.00
40384;BME280;26097;42.366;23.818;2023-05-23T06:27:17;93916.78;;;16.19;100.00
40384;BME280;26097;42.366;23.818;2023-05-23T06:30:18;93918.19;;;16.31;100.00
40384;BME280;26097;42.366;23.818;2023-05-23T06:33:18;93914.13;;;16.45;100.00
40384;BME280;26097;42.366;23.818;2023-05-23T06:36:19;93910.72;;;16.53;100.00
40384;BME280;26097;42.366;23.818;2023-05-23T06:39:19;93914.03;;;16.55;100.00
40384;BME280;26097;42.366;23.818;2023-05-23T06:42:20;93915.69;;;16.64;100.00
40384;BME280;26097;42.366;23.818;2023-05-23T06:45:20;93913.78;;;16.83;100.00
40384;BME280;26097;42.366;23.818;2023-05-23T06:48:21;93914.22;;;16.70;100.00
40384;BME280;26097;42.366;23.818;2023-05-23T06:51:21;93915.84;;;17.06;100.00
40384;BME280;26097;42.366;23.818;2023-05-23T06:54:22;93914.84;;;16.98;100.00
40384;BME280;26097;42.366;23.818;2023-05-23T06:57:22;93910.63;;;17.22;100.00
40384;BME280;26097;42.366;23.818;2023-05-23T07:00:22;93918.06;;;17.35;100.00
40384;BME280;26097;42.366;23.818;2023-05-23T07:03:23;93908.19;;;17.37;100.00
40384;BME280;26097;42.366;23.818;2023-05-23T07:06:23;93910.97;;;17.19;100.00
40384;BME280;26097;42.366;23.818;2023-05-23T07:09:24;93915.75;;;17.24;100.00
40384;BME280;26097;42.366;23.818;2023-05-23T07:12:25;93910.00;;;17.37;100.00
40384;BME280;26097;42.366;23.818;2023-05-23T07:15:25;93899.81;;;17.59;100.00
40384;BME280;26097;42.366;23.818;2023-05-23T07:18:25;93897.16;;;17.59;100.00
40384;BME280;26097;42.366;23.818;2023-05-23T07:21:26;93900.78;;;17.99;100.00
40384;BME280;26097;42.366;23.818;2023-05-23T07:24:26;93899.47;;;18.11;100.00
40384;BME280;26097;42.366;23.818;2023-05-23T07:27:27;93896.97;;;17.93;100.00
40384;BME280;26097;42.366;23.818;2023-05-23T07:30:28;93909.53;;;17.83;100.00
40384;BME280;26097;42.366;23.818;2023-05-23T07:33:28;93896.19;;;17.93;100.00
40384;BME280;26097;42.366;23.818;2023-05-23T14:35:51;93721.31;;;25.13;51.69
40384;BME280;26097;42.366;23.818;2023-05-23T14:38:51;93717.56;;;25.21;50.23
40384;BME280;26097;42.366;23.818;2023-05-23T14:41:52;93723.72;;;25.21;50.68
40384;BME280;26097;42.366;23.818;2023-05-23T14:44:52;93720.34;;;25.33;49.11
40384;BME280;26097;42.366;23.818;2023-05-23T14:47:53;93723.00;;;25.33;50.96
40384;BME280;26097;42.366;23.818;2023-05-23T14:50:53;93716.28;;;24.98;49.86
40384;BME280;26097;42.366;23.818;2023-05-23T14:53:54;93718.03;;;25.11;48.40
40384;BME280;26097;42.366;23.818;2023-05-23T14:56:54;93726.06;;;25.04;50.97
40384;BME280;26097;42.366;23.818;2023-05-23T14:59:55;93717.94;;;24.92;51.59
40384;BME280;26097;42.366;23.818;2023-05-23T15:02:56;93714.97;;;24.82;51.36
40384;BME280;26097;42.366;23.818;2023-05-23T15:05:56;93716.00;;;24.81;52.88
40384;BME280;26097;42.366;23.818;2023-05-23T15:08:57;93712.31;;;24.68;54.00
40384;BME280;26097;42.366;23.818;2023-05-23T15:11:57;93708.94;;;24.48;48.97
40384;BME280;26097;42.366;23.818;2023-05-23T15:14:58;93717.59;;;24.36;50.19
40384;BME280;26097;42.366;23.818;2023-05-23T15:18:03;93707.13;;;24.42;49.13
40384;BME280;26097;42.366;23.818;2023-05-23T15:21:06;93700.19;;;24.41;53.04
40384;BME280;26097;42.366;23.818;2023-05-23T15:24:07;93710.28;;;24.18;48.39
40384;BME280;26097;42.366;23.818;2023-05-23T15:27:08;93700.03;;;24.22;49.29
40384;BME280;26097;42.366;23.818;2023-05-23T15:30:08;93707.44;;;24.20;47.83
40384;BME280;26097;42.366;23.818;2023-05-23T15:33:09;93703.59;;;24.02;50.13
40384;BME280;26097;42.366;23.818;2023-05-23T15:36:11;93697.84;;;23.92;50.92
40384;BME280;26097;42.366;23.818;2023-05-23T15:39:12;93699.31;;;23.74;53.14
40384;BME280;26097;42.366;23.818;2023-05-23T15:42:12;93695.44;;;23.84;52.50
40384;BME280;26097;42.366;23.818;2023-05-23T15:45:13;93695.25;;;23.51;52.42
40384;BME280;26097;42.366;23.818;2023-05-23T15:48:13;93699.38;;;23.34;53.13
40384;BME280;26097;42.366;23.818;2023-05-23T15:51:14;93690.34;;;23.21;53.28
40384;BME280;26097;42.366;23.818;2023-05-23T15:54:15;93696.06;;;23.05;54.70
40384;BME280;26097;42.366;23.818;2023-05-23T15:57:15;93694.41;;;22.83;54.69
40384;BME280;26097;42.366;23.818;2023-05-23T16:00:16;93690.25;;;22.54;59.13
40384;BME280;26097;42.366;23.818;2023-05-23T16:03:17;93699.56;;;22.36;60.92
40384;BME280;26097;42.366;23.818;2023-05-23T16:06:17;93692.53;;;22.08;60.21
40384;BME280;26097;42.366;23.818;2023-05-23T16:09:18;93702.91;;;21.68;63.86
40384;BME280;26097;42.366;23.818;2023-05-23T16:12:18;93699.13;;;21.55;66.25
40384;BME280;26097;42.366;23.818;2023-05-23T16:15:18;93701.03;;;21.62;65.67
40384;BME280;26097;42.366;23.818;2023-05-23T16:18:19;93693.97;;;21.19;68.25
40384;BME280;26097;42.366;23.818;2023-05-23T16:21:19;93701.91;;;20.90;67.28
40384;BME280;26097;42.366;23.818;2023-05-23T16:24:19;93703.50;;;20.69;69.40
40384;BME280;26097;42.366;23.818;2023-05-23T16:27:24;93699.81;;;20.12;65.26
40384;BME280;26097;42.366;23.818;2023-05-23T16:30:25;93711.78;;;19.93;67.56
40384;BME280;26097;42.366;23.818;2023-05-23T16:33:26;93717.50;;;19.81;68.38
40384;BME280;26097;42.366;23.818;2023-05-23T16:36:27;93728.72;;;19.53;71.13
40384;BME280;26097;42.366;23.818;2023-05-23T16:39:27;93734.28;;;19.20;75.88
40384;BME280;26097;42.366;23.818;2023-05-23T16:42:28;93735.97;;;18.90;75.29
40384;BME280;26097;42.366;23.818;2023-05-23T16:45:28;93743.88;;;18.66;77.76
40384;BME280;26097;42.366;23.818;2023-05-23T16:48:29;93743.03;;;18.42;82.81
40384;BME280;26097;42.366;23.818;2023-05-23T16:51:29;93748.09;;;18.21;87.18
40384;BME280;26097;42.366;23.818;2023-05-23T16:54:30;93747.88;;;17.91;95.26
40384;BME280;26097;42.366;23.818;2023-05-23T16:57:31;93736.41;;;17.59;97.63
40384;BME280;26097;42.366;23.818;2023-05-23T17:00:31;93749.31;;;17.37;100.00
40384;BME280;26097;42.366;23.818;2023-05-23T17:03:32;93747.16;;;17.16;100.00
40384;BME280;26097;42.366;23.818;2023-05-23T17:06:32;93744.88;;;17.04;100.00
40384;BME280;26097;42.366;23.818;2023-05-23T17:09:33;93743.69;;;16.82;100.00
40384;BME280;26097;42.366;23.818;2023-05-23T17:12:33;93752.53;;;16.56;100.00
40384;BME280;26097;42.366;23.818;2023-05-23T17:15:33;93759.41;;;16.32;100.00
40384;BME280;26097;42.366;23.818;2023-05-23T17:18:34;93758.69;;;16.13;100.00
40384;BME280;26097;42.366;23.818;2023-05-23T17:21:35;93761.91;;;15.99;100.00
40384;BME280;26097;42.366;23.818;2023-05-23T17:24:36;93766.22;;;15.82;100.00
40384;BME280;26097;42.366;23.818;2023-05-23T17:27:37;93758.41;;;15.64;100.00
40384;BME280;26097;42.366;23.818;2023-05-23T17:30:37;93761.91;;;15.46;100.00
40384;BME280;26097;42.366;23.818;2023-05-23T17:33:38;93757.72;;;15.09;100.00
40384;BME280;26097;42.366;23.818;2023-05-23T17:36:38;93766.66;;;14.80;100.00
40384;BME280;26097;42.366;23.818;2023-05-23T17:39:39;93773.97;;;14.58;100.00
40384;BME280;26097;42.366;23.818;2023-05-23T17:42:40;93776.94;;;14.27;100.00
40384;BME280;26097;42.366;23.818;2023-05-23T17:45:40;93775.09;;;14.09;100.00
40384;BME280;26097;42.366;23.818;2023-05-23T17:48:41;93775.75;;;13.83;100.00
40384;BME280;26097;42.366;23.818;2023-05-23T17:51:41;93774.44;;;13.69;100.00
40384;BME280;26097;42.366;23.818;2023-05-23T17:54:42;93783.47;;;13.47;100.00
40384;BME280;26097;42.366;23.818;2023-05-23T17:57:42;93776.97;;;13.32;100.00
40384;BME280;26097;42.366;23.818;2023-05-23T18:00:44;93780.59;;;13.21;100.00
40384;BME280;26097;42.366;23.818;2023-05-23T18:03:44;93786.66;;;13.11;100.00
40384;BME280;26097;42.366;23.818;2023-05-23T18:06:45;93792.19;;;12.98;100.00
40384;BME280;26097;42.366;23.818;2023-05-23T18:09:46;93791.47;;;12.86;100.00
40384;BME280;26097;42.366;23.818;2023-05-23T18:12:47;93799.88;;;12.80;100.00
40384;BME280;26097;42.366;23.818;2023-05-23T18:15:47;93804.56;;;12.67;100.00
40384;BME280;26097;42.366;23.818;2023-05-23T18:18:47;93807.59;;;12.62;100.00
40384;BME280;26097;42.366;23.818;2023-05-23T18:21:48;93816.69;;;12.58;100.00
40384;BME280;26097;42.366;23.818;2023-05-23T18:24:48;93825.72;;;12.54;100.00
40384;BME280;26097;42.366;23.818;2023-05-23T18:27:49;93831.22;;;12.41;100.00
40384;BME280;26097;42.366;23.818;2023-05-23T18:30:49;93844.41;;;12.30;100.00
40384;BME280;26097;42.366;23.818;2023-05-23T18:33:50;93841.34;;;12.24;100.00
40384;BME280;26097;42.366;23.818;2023-05-23T18:36:50;93844.06;;;12.13;100.00
40384;BME280;26097;42.366;23.818;2023-05-23T18:39:50;93847.63;;;12.02;100.00
40384;BME280;26097;42.366;23.818;2023-05-23T18:42:51;93841.47;;;11.92;100.00
40384;BME280;26097;42.366;23.818;2023-05-23T18:45:51;93844.44;;;11.77;100.00
40384;BME280;26097;42.366;23.818;2023-05-23T18:48:52;93850.00;;;11.63;100.00
40384;BME280;26097;42.366;23.818;2023-05-23T18:51:52;93857.53;;;11.56;100.00
40384;BME280;26097;42.366;23.818;2023-05-23T18:54:53;93861.66;;;11.37;100.00
40384;BME280;26097;42.366;23.818;2023-05-23T18:57:54;93861.84;;;11.24;100.00
40384;BME280;26097;42.366;23.818;2023-05-23T19:00:54;93868.50;;;11.17;100.00
40384;BME280;26097;42.366;23.818;2023-05-23T19:03:54;93864.63;;;11.11;100.00
40384;BME280;26097;42.366;23.818;2023-05-23T19:06:56;93873.34;;;11.00;100.00
40384;BME280;26097;42.366;23.818;2023-05-23T19:09:57;93871.91;;;10.96;100.00
40384;BME280;26097;42.366;23.818;2023-05-23T19:12:57;93880.13;;;10.92;100.00
40384;BME280;26097;42.366;23.818;2023-05-23T19:15:57;93886.66;;;10.86;100.00
40384;BME280;26097;42.366;23.818;2023-05-23T19:19:01;93886.56;;;10.76;100.00
40384;BME280;26097;42.366;23.818;2023-05-23T19:22:01;93893.34;;;10.67;100.00
40384;BME280;26097;42.366;23.818;2023-05-23T19:25:02;93893.59;;;10.64;100.00
40384;BME280;26097;42.366;23.818;2023-05-23T19:28:04;93908.03;;;10.57;100.00
40384;BME280;26097;42.366;23.818;2023-05-23T19:31:05;93908.53;;;10.51;100.00
40384;BME280;26097;42.366;23.818;2023-05-23T19:34:06;93913.72;;;10.39;100.00
40384;BME280;26097;42.366;23.818;2023-05-23T19:37:07;93918.22;;;10.37;100.00
40384;BME280;26097;42.366;23.818;2023-05-23T19:40:08;93918.09;;;10.27;100.00
40384;BME280;26097;42.366;23.818;2023-05-23T19:43:08;93922.00;;;10.22;100.00
40384;BME280;26097;42.366;23.818;2023-05-23T19:46:09;93927.69;;;10.15;100.00
40384;BME280;26097;42.366;23.818;2023-05-23T19:49:09;93934.09;;;10.11;100.00
40384;BME280;26097;42.366;23.818;2023-05-23T19:52:10;93934.78;;;10.02;100.00
40384;BME280;26097;42.366;23.818;2023-05-23T19:55:10;93928.41;;;9.95;100.00
40384;BME280;26097;42.366;23.818;2023-05-23T19:58:10;93935.25;;;9.96;100.00
40384;BME280;26097;42.366;23.818;2023-05-23T20:01:11;93926.38;;;9.87;100.00
40384;BME280;26097;42.366;23.818;2023-05-23T20:04:11;93931.22;;;9.80;100.00
40384;BME280;26097;42.366;23.818;2023-05-23T20:07:12;93931.69;;;9.74;100.00
40384;BME280;26097;42.366;23.818;2023-05-23T20:10:13;93932.38;;;9.65;100.00
40384;BME280;26097;42.366;23.818;2023-05-23T20:13:14;93938.53;;;9.64;100.00
40384;BME280;26097;42.366;23.818;2023-05-23T20:16:15;93941.94;;;9.64;100.00
40384;BME280;26097;42.366;23.818;2023-05-23T20:19:15;93942.06;;;9.63;100.00
40384;BME280;26097;42.366;23.818;2023-05-23T20:22:16;93949.28;;;9.59;100.00
40384;BME280;26097;42.366;23.818;2023-05-23T20:25:16;93941.31;;;9.49;100.00
40384;BME280;26097;42.366;23.818;2023-05-23T20:28:17;93938.00;;;9.47;100.00
40384;BME280;26097;42.366;23.818;2023-05-23T20:31:17;93940.09;;;9.42;100.00
40384;BME280;26097;42.366;23.818;2023-05-23T20:34:18;93937.72;;;9.39;100.00
40384;BME280;26097;42.366;23.818;2023-05-23T20:37:18;93941.59;;;9.33;100.00
40384;BME280;26097;42.366;23.818;2023-05-23T20:40:19;93940.19;;;9.29;100.00
40384;BME280;26097;42.366;23.818;2023-05-23T20:43:21;93941.97;;;9.28;100.00
40384;BME280;26097;42.366;23.818;2023-05-23T20:46:21;93940.53;;;9.24;100.00
40384;BME280;26097;42.366;23.818;2023-05-23T20:49:22;93949.16;;;9.25;100.00
40384;BME280;26097;42.366;23.818;2023-05-23T20:52:22;93954.47;;;9.23;100.00
40384;BME280;26097;42.366;23.818;2023-05-23T20:55:23;93943.47;;;9.20;100.00
40384;BME280;26097;42.366;23.818;2023-05-23T20:58:24;93937.41;;;9.19;100.00
40384;BME280;26097;42.366;23.818;2023-05-23T21:01:25;93936.72;;;9.17;100.00
40384;BME280;26097;42.366;23.818;2023-05-23T21:04:26;93941.41;;;9.12;100.00
40384;BME280;26097;42.366;23.818;2023-05-23T21:07:26;93942.47;;;9.09;100.00
40384;BME280;26097;42.366;23.818;2023-05-23T21:10:27;93935.03;;;9.05;100.00
40384;BME280;26097;42.366;23.818;2023-05-23T21:13:27;93939.38;;;9.04;100.00
40384;BME280;26097;42.366;23.818;2023-05-23T21:16:28;93940.63;;;8.98;100.00
40384;BME280;26097;42.366;23.818;2023-05-23T21:19:28;93947.72;;;8.96;100.00
40384;BME280;26097;42.366;23.818;2023-05-23T21:22:29;93948.88;;;8.92;100.00
40384;BME280;26097;42.366;23.818;2023-05-23T21:25:29;93943.47;;;8.95;100.00
40384;BME280;26097;42.366;23.818;2023-05-23T21:28:29;93948.44;;;8.98;100.00
40384;BME280;26097;42.366;23.818;2023-05-23T21:31:30;93957.19;;;8.97;100.00
40384;BME280;26097;42.366;23.818;2023-05-23T21:34:30;93958.13;;;8.96;100.00
40384;BME280;26097;42.366;23.818;2023-05-23T21:37:30;93964.34;;;8.94;100.00
40384;BME280;26097;42.366;23.818;2023-05-23T21:40:31;93956.19;;;8.87;100.00
40384;BME280;26097;42.366;23.818;2023-05-23T21:43:31;93957.34;;;8.83;100.00
40384;BME280;26097;42.366;23.818;2023-05-23T21:46:32;93951.63;;;8.78;100.00
40384;BME280;26097;42.366;23.818;2023-05-23T21:49:32;93953.75;;;8.73;100.00
40384;BME280;26097;42.366;23.818;2023-05-23T21:52:34;93945.00;;;8.74;100.00
40384;BME280;26097;42.366;23.818;2023-05-23T21:55:34;93951.47;;;8.68;100.00
40384;BME280;26097;42.366;23.818;2023-05-23T21:58:35;93951.78;;;8.63;100.00
40384;BME280;26097;42.366;23.818;2023-05-23T22:01:35;93957.50;;;8.68;100.00
40384;BME280;26097;42.366;23.818;2023-05-23T22:04:35;93955.13;;;8.65;100.00
40384;BME280;26097;42.366;23.818;2023-05-23T22:07:36;93957.19;;;8.60;100.00
40384;BME280;26097;42.366;23.818;2023-05-23T22:10:36;93961.16;;;8.53;100.00
40384;BME280;26097;42.366;23.818;2023-05-23T22:13:37;93958.56;;;8.53;100.00
40384;BME280;26097;42.366;23.818;2023-05-23T22:16:39;93962.84;;;8.54;100.00
40384;BME280;26097;42.366;23.818;2023-05-23T22:19:40;93961.38;;;8.50;100.00
40384;BME280;26097;42.366;23.818;2023-05-23T22:22:40;93965.84;;;8.48;100.00
40384;BME280;26097;42.366;23.818;2023-05-23T22:25:42;93965.94;;;8.46;100.00
40384;BME280;26097;42.366;23.818;2023-05-23T22:28:42;93962.91;;;8.39;100.00
40384;BME280;26097;42.366;23.818;2023-05-23T22:31:43;93962.72;;;8.42;100.00
40384;BME280;26097;42.366;23.818;2023-05-23T22:34:43;93949.53;;;8.46;100.00
40384;BME280;26097;42.366;23.818;2023-05-23T22:37:44;93951.38;;;8.43;100.00
40384;BME280;26097;42.366;23.818;2023-05-23T22:40:45;93950.06;;;8.38;100.00
40384;BME280;26097;42.366;23.818;2023-05-23T22:43:45;93953.06;;;8.32;100.00